Decoded Metar for LYPG (PODGORICA in SERBIA) (IATA:TGD) | Meteo·Mobile Aviation Weather
aviador You're here:

LYPG Decoded Metar

PODGORICA in SERBIA
Report Time2018-10-19 09:30:00
UTC Time2018-10-19 10:01:26
Flight Rules vfr VFR
WindVRB at 02 kt
Visibility9999 m
Phenomena:N/A
Clouds:Few 040 Hf
Expected CloudBase > 6,000 ft AGL from Temp-Dew spread
CeilingNone
Temp23°C (ISA +8)
Dew Point08°C (38% RH)
AAT21.8°C
QNH1016 hPa
Density Alt1,152 ft
Elevation141 ft
Report Wrong Elevation
Raw Report
LYPG 190930Z VRB02KT 9999 FEW040 23/08 Q1016 NOSIG=

Extra information for LYPG:More info

Metar Taf Metar & Taf Last 4 Metars F.Rules Stats Wind Profile Meteogram Temp Stats Airport Information Weather charts Add Link Nearby VenuesMetar ALERT Operation Metar Decoded Social comments